Time;durP1;ratioP1;P1;durP2;ratioP2;P2;SDS_P1;SDS_P2;PMS_P1;PMS_P2;Temp;Humidity;BMP_temperature;BMP_pressure;BME280_temperature;BME280_humidity;BME280_pressure;Samples;Min_cycle;Max_cycle;Signal;HPM_P1;HPM_P2
2022/04/12 00:00:31;;;;;;;13.18;7.05;;;7.10;99.90;;;;;;5007329;28;20042;-74
2022/04/12 00:02:57;;;;;;;11.43;6.60;;;7.00;99.90;;;;;;5024287;28;20038;-75
2022/04/12 00:05:23;;;;;;;12.88;7.80;;;7.00;99.90;;;;;;5005793;28;20155;-74
2022/04/12 00:07:49;;;;;;;17.27;7.78;;;7.00;99.90;;;;;;5005736;28;20042;-74
2022/04/12 00:10:14;;;;;;;13.60;7.28;;;7.00;99.90;;;;;;5005260;28;20041;-74
2022/04/12 00:12:40;;;;;;;15.30;7.25;;;7.00;99.90;;;;;;5006337;28;20437;-74
2022/04/12 00:15:07;;;;;;;14.23;7.93;;;7.00;99.90;;;;;;5026767;28;20038;-74
2022/04/12 00:20:19;;;;;;;12.98;8.52;;;7.00;99.90;;;;;;5023287;28;20500;-74
2022/04/12 00:22:45;;;;;;;12.70;8.57;;;6.90;99.90;;;;;;5023951;28;20132;-74
2022/04/12 00:25:11;;;;;;;11.32;8.15;;;6.90;99.90;;;;;;5004190;28;20619;-74
2022/04/12 00:27:37;;;;;;;14.02;8.90;;;6.80;99.90;;;;;;5004051;28;20138;-74
2022/04/12 00:30:06;;;;;;;13.95;8.32;;;6.80;99.90;;;;;;5005911;28;20434;-74
2022/04/12 00:32:32;;;;;;;16.65;9.68;;;6.80;99.90;;;;;;5005874;28;20069;-74
2022/04/12 00:34:57;;;;;;;15.13;8.77;;;6.80;99.90;;;;;;5022172;28;20045;-74
2022/04/12 00:37:23;;;;;;;14.70;9.60;;;6.70;99.90;;;;;;5003546;28;20048;-74
2022/04/12 00:39:49;;;;;;;13.02;8.30;;;6.70;99.90;;;;;;5007588;28;20079;-75
2022/04/12 00:42:14;;;;;;;15.25;8.95;;;6.70;99.90;;;;;;5024976;28;20042;-74
2022/04/12 00:44:40;;;;;;;14.20;8.98;;;6.70;99.90;;;;;;5022414;28;20049;-75
2022/04/12 00:47:06;;;;;;;14.93;9.18;;;6.60;99.90;;;;;;5004697;28;20049;-74
2022/04/12 00:49:31;;;;;;;16.35;8.68;;;6.60;99.90;;;;;;5024530;28;20037;-75
2022/04/12 00:51:58;;;;;;;19.05;9.40;;;6.50;99.90;;;;;;5008817;28;20069;-75
2022/04/12 00:54:25;;;;;;;13.05;9.45;;;6.60;99.90;;;;;;5024062;28;20493;-75
2022/04/12 00:56:52;;;;;;;13.95;8.35;;;6.50;99.90;;;;;;5025517;28;20171;-75
2022/04/12 00:59:19;;;;;;;14.82;8.85;;;6.50;99.90;;;;;;5025116;28;20128;-74
2022/04/12 01:01:44;;;;;;;14.02;8.93;;;6.50;99.90;;;;;;5005132;28;20053;-75
2022/04/12 01:04:10;;;;;;;12.77;8.93;;;6.50;99.90;;;;;;5005902;28;20493;-74
2022/04/12 01:06:39;;;;;;;14.20;9.38;;;6.50;99.90;;;;;;5007837;28;20129;-74
2022/04/12 01:09:05;;;;;;;13.40;9.63;;;6.50;99.90;;;;;;5005096;28;20519;-73
2022/04/12 01:11:34;;;;;;;14.45;8.60;;;6.50;99.90;;;;;;5004642;28;20049;-74
2022/04/12 01:14:00;;;;;;;13.98;9.55;;;6.50;99.90;;;;;;5022815;28;20140;-75
2022/04/12 01:16:26;;;;;;;15.90;9.30;;;6.50;99.90;;;;;;5004636;28;20038;-75
2022/04/12 01:18:52;;;;;;;13.40;8.90;;;6.40;99.90;;;;;;5007355;28;20049;-75
2022/04/12 01:21:18;;;;;;;14.27;9.10;;;6.50;99.90;;;;;;5022534;28;20442;-75
2022/04/12 01:23:58;;;;;;;14.50;8.25;;;6.40;99.90;;;;;;5007049;28;20045;-75
2022/04/12 01:26:24;;;;;;;14.23;9.40;;;6.40;99.90;;;;;;5005708;28;20125;-74
2022/04/12 01:28:50;;;;;;;13.77;8.73;;;6.40;99.90;;;;;;5005759;28;20144;-75
2022/04/12 01:31:16;;;;;;;14.98;8.20;;;6.40;99.90;;;;;;5006712;28;20133;-74
2022/04/12 01:33:41;;;;;;;18.27;9.25;;;6.40;99.90;;;;;;5006536;28;20037;-75
2022/04/12 01:36:07;;;;;;;14.85;8.45;;;6.30;99.90;;;;;;5021436;28;20080;-74
2022/04/12 01:38:32;;;;;;;14.73;8.27;;;6.40;99.90;;;;;;5023728;28;20037;-74
2022/04/12 01:40:58;;;;;;;14.30;8.90;;;6.40;99.90;;;;;;5003079;28;20034;-75
2022/04/12 01:43:24;;;;;;;13.80;9.10;;;6.30;99.90;;;;;;5004931;28;20075;-74
2022/04/12 01:45:49;;;;;;;14.05;8.73;;;6.30;99.90;;;;;;5023788;28;20037;-74
2022/04/12 01:48:15;;;;;;;17.33;9.05;;;6.30;99.90;;;;;;5006319;28;20046;-74
2022/04/12 01:50:40;;;;;;;14.18;8.95;;;6.30;99.90;;;;;;5022766;28;20616;-75
2022/04/12 01:53:06;;;;;;;16.48;9.50;;;6.30;99.90;;;;;;5018865;28;20042;-74
2022/04/12 01:55:32;;;;;;;17.20;8.77;;;6.20;99.90;;;;;;5021876;28;20056;-74
2022/04/12 01:57:57;;;;;;;12.60;8.80;;;6.20;99.90;;;;;;5024620;28;20049;-74
2022/04/12 02:00:23;;;;;;;14.65;9.45;;;6.20;99.90;;;;;;5004661;28;20120;-75
2022/04/12 02:02:48;;;;;;;13.57;9.07;;;6.20;99.90;;;;;;5004101;28;20045;-75
2022/04/12 02:05:15;;;;;;;12.25;8.98;;;6.20;99.90;;;;;;5004327;28;20030;-74
2022/04/12 02:07:44;;;;;;;14.98;9.60;;;6.10;99.90;;;;;;5004864;28;20038;-75
2022/04/12 02:10:11;;;;;;;13.30;8.70;;;6.10;99.90;;;;;;5001252;28;20171;-75
2022/04/12 02:12:36;;;;;;;16.60;9.20;;;6.10;99.90;;;;;;5005071;28;20069;-75
2022/04/12 02:15:03;;;;;;;13.90;8.38;;;6.00;99.90;;;;;;5004393;28;20053;-74
2022/04/12 02:17:29;;;;;;;15.48;9.25;;;6.00;99.90;;;;;;5004557;28;20049;-75
2022/04/12 02:19:55;;;;;;;13.90;8.93;;;6.00;99.90;;;;;;5003325;28;20489;-75
2022/04/12 02:22:21;;;;;;;14.95;9.65;;;6.00;99.90;;;;;;5004762;28;21158;-75
2022/04/12 02:24:47;;;;;;;13.73;8.98;;;5.90;99.90;;;;;;5023689;28;20139;-75
2022/04/12 02:27:12;;;;;;;14.13;8.57;;;5.90;99.90;;;;;;5018456;28;20049;-75
2022/04/12 02:29:39;;;;;;;20.15;9.52;;;5.90;99.90;;;;;;5004340;28;20092;-76
2022/04/12 02:32:05;;;;;;;15.02;8.70;;;5.90;99.90;;;;;;5003099;28;20278;-75
2022/04/12 02:34:30;;;;;;;12.73;9.25;;;5.90;99.90;;;;;;5023568;28;20088;-75
2022/04/12 02:36:56;;;;;;;15.63;10.20;;;5.90;99.90;;;;;;5005375;28;20493;-75
2022/04/12 02:39:21;;;;;;;13.40;9.40;;;5.80;99.90;;;;;;5002871;28;20124;-75
2022/04/12 02:41:48;;;;;;;15.25;9.80;;;5.80;99.90;;;;;;5005353;28;20061;-75
2022/04/12 02:44:14;;;;;;;16.70;9.48;;;5.80;99.90;;;;;;5001021;28;20067;-75
2022/04/12 02:46:40;;;;;;;13.77;9.35;;;5.80;99.90;;;;;;5005472;28;20394;-75
2022/04/12 02:49:06;;;;;;;16.15;9.93;;;5.80;99.90;;;;;;5020782;28;20041;-75
2022/04/12 02:51:32;;;;;;;14.93;9.40;;;5.80;99.90;;;;;;5023916;28;20107;-74
2022/04/12 02:53:57;;;;;;;13.48;9.27;;;5.80;99.90;;;;;;5004446;28;20529;-74
2022/04/12 02:56:23;;;;;;;16.33;9.77;;;5.80;99.90;;;;;;5001666;28;20080;-75
2022/04/12 02:58:49;;;;;;;17.13;8.98;;;5.80;99.90;;;;;;5022769;28;20188;-74
2022/04/12 03:01:15;;;;;;;14.15;9.02;;;5.80;99.90;;;;;;5025491;28;20049;-74
2022/04/12 03:03:40;;;;;;;18.10;10.93;;;5.80;99.90;;;;;;5021501;28;20176;-76
2022/04/12 03:06:06;;;;;;;17.48;10.35;;;5.80;99.90;;;;;;5005262;28;20057;-74
2022/04/12 03:08:32;;;;;;;16.15;9.43;;;5.80;99.90;;;;;;5023822;28;20060;-74
2022/04/12 03:10:57;;;;;;;13.50;9.40;;;5.80;99.90;;;;;;5004596;28;20115;-75
2022/04/12 03:13:23;;;;;;;13.85;9.50;;;5.80;99.90;;;;;;5020980;28;20061;-74
2022/04/12 03:15:49;;;;;;;13.90;9.25;;;5.80;99.90;;;;;;4998869;28;20056;-75
2022/04/12 03:18:16;;;;;;;16.23;9.52;;;5.80;99.90;;;;;;5000804;28;20525;-74
2022/04/12 03:20:42;;;;;;;15.85;9.95;;;5.70;99.90;;;;;;5004879;28;20082;-75
2022/04/12 03:23:08;;;;;;;15.38;9.85;;;5.70;99.90;;;;;;5023523;28;20140;-74
2022/04/12 03:25:34;;;;;;;18.27;10.45;;;5.60;99.90;;;;;;5002450;28;20053;-75
2022/04/12 03:28:00;;;;;;;15.35;9.13;;;5.60;99.90;;;;;;5005111;28;20045;-75
2022/04/12 03:30:26;;;;;;;15.90;9.75;;;5.60;99.90;;;;;;5003074;28;20052;-75
2022/04/12 03:32:52;;;;;;;16.50;10.15;;;5.50;99.90;;;;;;5007801;28;20049;-75
2022/04/12 03:35:17;;;;;;;13.70;9.75;;;5.50;99.90;;;;;;4997558;28;20141;-74
2022/04/12 03:37:43;;;;;;;18.77;10.77;;;5.50;99.90;;;;;;5023390;28;20435;-75
2022/04/12 03:40:09;;;;;;;16.95;10.07;;;5.50;99.90;;;;;;5004419;28;20045;-75
2022/04/12 03:42:35;;;;;;;14.68;9.52;;;5.50;99.90;;;;;;5023653;28;20048;-75
2022/04/12 03:45:01;;;;;;;14.50;10.25;;;5.60;99.90;;;;;;5018307;28;20034;-73
2022/04/12 03:47:26;;;;;;;21.88;11.32;;;5.60;99.90;;;;;;5021343;28;20045;-75
2022/04/12 03:49:52;;;;;;;17.52;10.00;;;5.60;99.90;;;;;;5019806;28;20459;-75
2022/04/12 03:52:18;;;;;;;14.52;10.00;;;5.60;99.90;;;;;;5005616;28;20073;-75
2022/04/12 03:54:43;;;;;;;16.88;10.52;;;5.60;99.90;;;;;;5009648;28;20049;-75
2022/04/12 03:57:09;;;;;;;14.73;10.43;;;5.70;99.90;;;;;;5024798;28;20452;-74
2022/04/12 03:59:35;;;;;;;17.40;10.55;;;5.70;99.90;;;;;;5025552;28;20072;-76
2022/04/12 04:02:00;;;;;;;16.67;10.60;;;5.70;99.90;;;;;;5007074;28;20045;-73
2022/04/12 04:04:26;;;;;;;16.17;10.55;;;5.80;99.90;;;;;;5004292;28;20552;-75
2022/04/12 04:06:52;;;;;;;13.88;9.65;;;5.70;99.90;;;;;;5009123;28;20493;-75
2022/04/12 04:09:17;;;;;;;17.55;10.43;;;5.70;99.90;;;;;;5004511;28;20054;-75
2022/04/12 04:11:43;;;;;;;17.52;11.23;;;5.70;99.90;;;;;;5022801;28;20049;-75
2022/04/12 04:14:10;;;;;;;15.23;10.50;;;5.80;99.90;;;;;;5005539;28;20378;-75
2022/04/12 04:16:39;;;;;;;16.75;11.60;;;5.80;99.90;;;;;;5023195;28;20057;-75
2022/04/12 04:19:08;;;;;;;19.95;10.63;;;5.80;99.90;;;;;;5019710;28;20053;-74
2022/04/12 04:21:37;;;;;;;17.75;10.32;;;5.80;99.90;;;;;;5006216;28;20095;-75
2022/04/12 04:24:03;;;;;;;18.58;11.10;;;5.80;99.90;;;;;;5005652;28;20088;-75
2022/04/12 04:26:29;;;;;;;16.50;11.48;;;5.80;99.90;;;;;;5005649;28;20503;-75
2022/04/12 04:28:55;;;;;;;17.67;10.85;;;5.80;99.90;;;;;;5025273;28;20068;-75
2022/04/12 04:31:21;;;;;;;17.08;10.82;;;5.70;99.90;;;;;;5024462;28;20083;-75
2022/04/12 04:33:47;;;;;;;18.38;10.90;;;5.70;99.90;;;;;;5004481;28;20069;-75
2022/04/12 04:36:13;;;;;;;17.25;11.73;;;5.70;99.90;;;;;;5006076;28;20068;-75
2022/04/12 04:38:38;;;;;;;14.98;10.82;;;5.70;99.90;;;;;;5007218;28;20061;-75
2022/04/12 04:41:04;;;;;;;18.92;11.00;;;5.60;99.90;;;;;;5022238;28;20051;-74
2022/04/12 04:43:30;;;;;;;19.85;11.90;;;5.70;99.90;;;;;;5024680;28;20052;-74
2022/04/12 04:45:55;;;;;;;16.80;11.10;;;5.70;99.90;;;;;;5026439;28;20045;-74
2022/04/12 04:48:21;;;;;;;16.65;10.80;;;5.70;99.90;;;;;;5005497;28;20045;-74
2022/04/12 04:50:47;;;;;;;18.88;11.68;;;5.70;99.90;;;;;;5004618;28;20077;-74
2022/04/12 04:53:12;;;;;;;19.83;11.18;;;5.70;99.90;;;;;;5007011;28;20076;-74
2022/04/12 04:56:02;;;;;;;17.75;10.60;;;5.70;99.90;;;;;;5023295;28;20122;-75
2022/04/12 04:58:28;;;;;;;17.67;11.38;;;5.80;99.90;;;;;;5008668;28;20433;-76
2022/04/12 05:00:53;;;;;;;18.23;11.98;;;5.80;99.90;;;;;;5020134;28;20509;-75
2022/04/12 05:03:19;;;;;;;17.30;10.95;;;5.80;99.90;;;;;;5002585;28;20041;-75
2022/04/12 05:05:45;;;;;;;16.27;11.35;;;5.80;99.90;;;;;;5006748;28;20045;-73
2022/04/12 05:08:10;;;;;;;19.17;11.68;;;5.80;99.90;;;;;;5007759;28;20083;-76
2022/04/12 05:10:36;;;;;;;20.10;10.57;;;5.90;99.90;;;;;;5005222;28;20037;-76
2022/04/12 05:13:03;;;;;;;20.45;10.68;;;5.90;99.90;;;;;;5023042;28;20060;-75
2022/04/12 05:15:28;;;;;;;17.10;10.88;;;5.90;99.90;;;;;;5001417;28;20485;-75
2022/04/12 05:17:55;;;;;;;18.73;11.10;;;5.90;99.90;;;;;;5000468;28;20038;-76
2022/04/12 05:20:24;;;;;;;17.60;11.18;;;5.90;99.90;;;;;;5003779;28;20056;-75
2022/04/12 05:22:50;;;;;;;15.30;10.90;;;6.00;99.90;;;;;;5006061;28;20034;-76
2022/04/12 05:25:15;;;;;;;19.42;10.82;;;6.00;99.90;;;;;;5021567;28;20041;-76
2022/04/12 05:27:43;;;;;;;18.38;10.90;;;6.00;99.90;;;;;;5005901;28;20046;-76
2022/04/12 05:30:10;;;;;;;16.48;10.85;;;6.00;99.90;;;;;;5002014;28;20467;-76
2022/04/12 05:32:37;;;;;;;16.48;10.77;;;6.00;99.90;;;;;;5025502;28;20038;-76
2022/04/12 05:35:06;;;;;;;14.57;9.75;;;6.10;99.90;;;;;;5002149;28;20076;-75
2022/04/12 05:37:33;;;;;;;17.38;11.20;;;6.10;99.90;;;;;;5024059;28;20060;-76
2022/04/12 05:40:03;;;;;;;14.95;10.45;;;6.10;99.90;;;;;;5021173;28;20531;-75
2022/04/12 05:42:29;;;;;;;18.23;11.20;;;6.20;99.90;;;;;;5006533;28;20045;-74
2022/04/12 05:44:54;;;;;;;17.45;10.68;;;6.20;99.90;;;;;;5021177;28;20041;-75
2022/04/12 05:47:20;;;;;;;13.82;10.05;;;6.30;99.90;;;;;;5022675;28;20181;-74
2022/04/12 05:49:46;;;;;;;14.98;10.52;;;6.30;99.90;;;;;;5024310;28;20064;-74
2022/04/12 05:52:11;;;;;;;18.83;12.07;;;6.40;99.90;;;;;;5001670;28;20133;-75
2022/04/12 05:54:37;;;;;;;19.35;10.52;;;6.50;99.90;;;;;;5001950;28;20065;-75
2022/04/12 05:57:03;;;;;;;17.58;9.93;;;6.60;99.90;;;;;;5003897;28;20140;-74
2022/04/12 05:59:29;;;;;;;17.42;10.75;;;6.60;99.90;;;;;;5004231;28;20443;-74
2022/04/12 06:01:54;;;;;;;15.30;9.88;;;6.70;99.90;;;;;;5020850;28;20048;-74
2022/04/12 06:04:20;;;;;;;14.35;10.32;;;6.80;99.90;;;;;;5005410;28;20046;-74
2022/04/12 06:06:46;;;;;;;19.35;10.27;;;6.90;99.90;;;;;;5004719;28;20057;-74
2022/04/12 06:09:11;;;;;;;14.43;10.27;;;6.90;99.90;;;;;;5020560;28;20106;-73
2022/04/12 06:11:37;;;;;;;17.20;11.52;;;7.00;99.90;;;;;;5022387;28;20110;-74
2022/04/12 06:14:03;;;;;;;19.17;10.38;;;7.00;99.90;;;;;;5002788;28;20506;-74
2022/04/12 06:16:28;;;;;;;17.92;11.18;;;7.10;99.90;;;;;;5006063;28;20164;-75
2022/04/12 06:18:55;;;;;;;16.75;9.18;;;7.20;99.90;;;;;;5004157;28;20168;-74
2022/04/12 06:21:21;;;;;;;14.65;10.27;;;7.20;99.90;;;;;;5002526;28;20378;-76
2022/04/12 06:23:47;;;;;;;16.42;10.18;;;7.20;99.90;;;;;;5002993;28;20065;-75
2022/04/12 06:26:13;;;;;;;15.70;10.02;;;7.20;99.90;;;;;;5022951;28;20069;-74
2022/04/12 06:28:38;;;;;;;14.80;10.38;;;7.30;99.90;;;;;;5022828;28;20065;-75
2022/04/12 06:31:04;;;;;;;20.65;10.85;;;7.30;99.90;;;;;;5023701;28;20045;-74
2022/04/12 06:33:29;;;;;;;14.52;9.90;;;7.30;99.90;;;;;;5020193;28;20037;-75
2022/04/12 06:35:56;;;;;;;15.95;9.75;;;7.40;99.90;;;;;;5001162;28;20520;-74
2022/04/12 06:38:22;;;;;;;17.63;10.27;;;7.40;99.90;;;;;;5004258;28;20076;-75
2022/04/12 06:40:49;;;;;;;18.33;11.50;;;7.40;99.90;;;;;;5021285;28;20084;-75
2022/04/12 06:43:15;;;;;;;16.08;11.52;;;7.50;99.90;;;;;;5003566;28;20045;-75
2022/04/12 06:45:41;;;;;;;17.77;10.60;;;7.50;99.90;;;;;;5022749;28;20637;-74
2022/04/12 06:48:07;;;;;;;19.98;12.85;;;7.50;99.90;;;;;;5022592;28;20052;-74
2022/04/12 06:50:33;;;;;;;16.90;11.75;;;7.60;99.90;;;;;;5017785;28;20066;-74
2022/04/12 06:52:59;;;;;;;14.15;10.32;;;7.70;99.90;;;;;;5019869;28;20080;-75
2022/04/12 06:55:26;;;;;;;16.38;9.63;;;7.80;99.90;;;;;;5001368;28;20104;-75
2022/04/12 06:57:52;;;;;;;17.17;10.20;;;8.00;99.90;;;;;;5018348;28;20057;-75
2022/04/12 07:00:18;;;;;;;13.82;8.75;;;8.20;99.90;;;;;;5019472;28;20082;-74
2022/04/12 07:02:44;;;;;;;13.95;9.07;;;8.40;99.90;;;;;;5002416;28;20049;-74
2022/04/12 07:05:11;;;;;;;15.70;9.35;;;8.60;99.90;;;;;;5004019;28;20037;-74
2022/04/12 07:07:37;;;;;;;16.10;8.85;;;8.80;99.90;;;;;;5004683;28;20037;-71
2022/04/12 07:10:09;;;;;;;15.48;9.70;;;9.00;99.90;;;;;;5003953;28;20058;-70
2022/04/12 07:12:35;;;;;;;14.65;9.00;;;9.20;99.90;;;;;;5003219;28;20048;-71
2022/04/12 07:15:02;;;;;;;13.23;9.32;;;9.20;99.90;;;;;;5005798;28;20045;-71
2022/04/12 07:17:27;;;;;;;13.50;8.93;;;9.30;99.90;;;;;;5026437;28;20060;-71
2022/04/12 07:19:53;;;;;;;14.07;8.63;;;9.30;99.90;;;;;;5024879;28;20038;-70
2022/04/12 07:22:18;;;;;;;14.70;9.60;;;9.40;99.90;;;;;;5023627;28;20057;-69
2022/04/12 07:24:44;;;;;;;13.52;8.77;;;9.60;99.90;;;;;;5001419;28;20057;-70
2022/04/12 07:27:10;;;;;;;11.85;8.75;;;9.70;99.90;;;;;;5003231;28;20049;-71
2022/04/12 07:29:35;;;;;;;16.10;9.20;;;9.90;99.90;;;;;;5008052;28;20060;-71
2022/04/12 07:32:01;;;;;;;13.63;8.85;;;10.00;99.90;;;;;;5006509;28;20056;-69
2022/04/12 07:34:27;;;;;;;13.75;8.52;;;10.20;99.90;;;;;;5004040;28;20088;-71
2022/04/12 07:36:55;;;;;;;12.65;9.50;;;10.30;99.90;;;;;;5000801;28;20053;-70
2022/04/12 07:39:22;;;;;;;15.13;9.73;;;10.30;99.90;;;;;;5025097;28;20815;-70
2022/04/12 07:41:48;;;;;;;11.23;8.20;;;10.50;99.90;;;;;;5022742;28;20041;-71
2022/04/12 07:44:15;;;;;;;13.43;8.70;;;10.60;99.90;;;;;;5020087;28;20482;-70
2022/04/12 07:46:41;;;;;;;12.88;9.00;;;10.60;99.90;;;;;;5004583;28;20493;-71
2022/04/12 07:49:07;;;;;;;13.02;8.55;;;10.70;99.90;;;;;;5002974;28;20057;-71
2022/04/12 07:51:33;;;;;;;15.98;8.80;;;10.80;99.90;;;;;;5008076;28;20080;-70
2022/04/12 07:54:00;;;;;;;11.65;8.75;;;10.90;99.90;;;;;;5008701;28;20045;-71
2022/04/12 07:56:27;;;;;;;11.68;8.52;;;11.00;99.90;;;;;;5008250;28;20143;-70
2022/04/12 07:58:56;;;;;;;13.55;8.23;;;11.00;99.90;;;;;;5023627;28;20385;-71
2022/04/12 08:01:22;;;;;;;14.35;8.70;;;11.10;99.90;;;;;;5006872;28;20044;-71
2022/04/12 08:03:47;;;;;;;12.00;8.45;;;11.30;99.90;;;;;;5005468;28;20054;-70
2022/04/12 08:06:13;;;;;;;13.07;8.35;;;11.40;99.90;;;;;;5008000;28;20041;-71
2022/04/12 08:08:39;;;;;;;13.27;8.23;;;11.40;99.90;;;;;;5010669;28;20537;-71
2022/04/12 08:11:05;;;;;;;14.88;8.35;;;11.50;99.90;;;;;;5012000;28;20057;-70
2022/04/12 08:13:31;;;;;;;11.82;8.35;;;11.50;99.90;;;;;;5009730;28;20643;-71
2022/04/12 08:15:57;;;;;;;13.13;8.95;;;11.60;99.90;;;;;;5030400;28;20045;-71
2022/04/12 08:18:23;;;;;;;11.00;7.95;;;11.70;99.90;;;;;;5008754;28;20045;-71
2022/04/12 08:20:54;;;;;;;12.30;8.10;;;11.70;99.90;;;;;;5025073;28;20136;-70
2022/04/12 08:23:24;;;;;;;11.05;7.97;;;11.70;99.90;;;;;;5025452;28;20053;-71
2022/04/12 08:25:50;;;;;;;13.43;8.88;;;11.70;99.90;;;;;;5023318;28;20420;-70
2022/04/12 08:28:16;;;;;;;10.57;7.88;;;11.80;99.90;;;;;;4991513;28;20397;-70
2022/04/12 08:30:42;;;;;;;12.18;7.70;;;11.80;99.90;;;;;;5005512;28;20643;-71
2022/04/12 08:33:08;;;;;;;13.70;8.95;;;11.90;99.90;;;;;;5005665;28;20095;-71
2022/04/12 08:35:34;;;;;;;11.88;7.57;;;11.90;99.90;;;;;;5004997;28;20061;-71
2022/04/12 08:38:00;;;;;;;12.07;8.32;;;12.00;99.90;;;;;;5002023;28;20046;-70
2022/04/12 08:40:26;;;;;;;12.75;8.55;;;12.10;99.90;;;;;;5004425;28;20057;-71
2022/04/12 08:42:53;;;;;;;12.13;8.88;;;12.20;99.90;;;;;;5005572;28;20505;-71
2022/04/12 08:45:19;;;;;;;12.40;8.10;;;12.30;99.90;;;;;;5008445;28;20527;-70
2022/04/12 08:47:45;;;;;;;12.93;8.02;;;12.40;99.90;;;;;;5004553;28;20049;-70
2022/04/12 08:50:11;;;;;;;13.43;9.48;;;12.50;99.90;;;;;;5024452;28;20116;-70
2022/04/12 08:52:38;;;;;;;14.07;8.88;;;12.70;99.90;;;;;;5024455;28;20045;-70
2022/04/12 08:55:05;;;;;;;11.73;8.57;;;12.80;99.90;;;;;;5019982;28;20099;-70
2022/04/12 08:57:31;;;;;;;12.45;8.73;;;13.00;99.90;;;;;;5025264;28;20041;-71
2022/04/12 08:59:57;;;;;;;12.07;8.25;;;13.00;99.90;;;;;;5006254;28;20053;-70
2022/04/12 09:02:23;;;;;;;12.02;8.35;;;13.10;99.90;;;;;;5020207;28;20052;-70
2022/04/12 09:04:48;;;;;;;12.93;8.07;;;13.30;99.90;;;;;;5005754;28;20084;-70
2022/04/12 09:07:14;;;;;;;17.15;8.40;;;13.30;99.90;;;;;;5023054;28;20472;-70
2022/04/12 09:09:42;;;;;;;10.90;7.90;;;13.40;99.90;;;;;;5021847;28;20051;-70
2022/04/12 09:12:13;;;;;;;11.52;8.00;;;13.60;99.90;;;;;;4999113;28;20056;-69
2022/04/12 09:14:52;;;;;;;11.18;7.90;;;13.70;99.90;;;;;;4990314;28;20041;-70
2022/04/12 09:17:26;;;;;;;11.50;7.90;;;13.80;99.90;;;;;;5005927;28;20052;-70
2022/04/12 09:19:52;;;;;;;12.70;8.57;;;13.90;99.90;;;;;;5022242;28;20069;-70
2022/04/12 09:22:23;;;;;;;10.88;7.88;;;14.10;99.90;;;;;;5021081;28;20513;-70
2022/04/12 09:24:51;;;;;;;13.52;8.48;;;14.20;99.90;;;;;;5006206;28;21443;-71
2022/04/12 09:27:20;;;;;;;13.10;8.40;;;14.30;99.90;;;;;;5021666;28;20038;-71
2022/04/12 09:30:01;;;;;;;12.93;8.05;;;14.40;99.90;;;;;;5014723;28;20484;-72
2022/04/12 09:32:30;;;;;;;;;;;14.50;99.90;;;;;;5024370;28;20049;-71
2022/04/12 09:34:56;;;;;;;10.68;7.72;;;14.50;99.90;;;;;;5013746;28;19932;-71
2022/04/12 09:37:24;;;;;;;11.27;7.53;;;14.60;99.90;;;;;;5023822;28;20094;-71
2022/04/12 09:39:59;;;;;;;10.75;8.25;;;14.50;99.90;;;;;;5024349;28;20049;-70
2022/04/12 09:42:37;;;;;;;11.77;7.28;;;14.60;99.90;;;;;;5026607;28;20042;-71
2022/04/12 09:45:05;;;;;;;11.57;8.10;;;14.60;99.90;;;;;;5026814;28;20076;-71
2022/04/12 09:47:32;;;;;;;11.82;7.30;;;14.70;99.90;;;;;;5005605;28;20068;-71
2022/04/12 09:49:59;;;;;;;12.70;8.02;;;14.70;99.90;;;;;;5007503;28;20045;-72
2022/04/12 09:52:25;;;;;;;10.70;7.80;;;14.80;99.90;;;;;;5027814;28;20635;-72
2022/04/12 09:54:51;;;;;;;17.10;8.70;;;14.90;99.90;;;;;;5009435;28;20061;-72
2022/04/12 09:57:17;;;;;;;14.10;8.07;;;15.00;99.90;;;;;;5025036;28;20129;-72
2022/04/12 09:59:44;;;;;;;10.60;8.05;;;15.20;99.90;;;;;;5006535;28;20525;-71
2022/04/12 10:02:11;;;;;;;11.98;7.72;;;15.40;99.90;;;;;;5024263;28;20033;-71
2022/04/12 10:04:38;;;;;;;12.93;8.20;;;15.40;99.90;;;;;;5024878;28;20045;-71
2022/04/12 10:07:05;;;;;;;13.50;8.35;;;15.50;99.90;;;;;;5024048;28;20045;-71
2022/04/12 10:09:32;;;;;;;12.35;8.52;;;15.60;99.90;;;;;;5024385;28;20047;-71
2022/04/12 10:11:58;;;;;;;10.60;8.00;;;15.80;99.90;;;;;;5001413;28;20077;-72
2022/04/12 10:14:24;;;;;;;14.30;8.60;;;15.90;99.90;;;;;;5022135;28;20129;-70
2022/04/12 10:16:50;;;;;;;13.80;8.18;;;15.90;99.90;;;;;;5026540;28;20073;-72
2022/04/12 10:19:18;;;;;;;12.98;8.40;;;15.90;99.90;;;;;;5025584;28;20547;-72
2022/04/12 10:21:43;;;;;;;17.55;9.00;;;16.00;99.90;;;;;;5003244;28;20057;-71
2022/04/12 10:24:12;;;;;;;12.23;8.13;;;16.00;99.90;;;;;;5006535;28;20053;-73
2022/04/12 10:26:39;;;;;;;11.75;7.97;;;16.10;99.90;;;;;;5024429;28;20081;-71
2022/04/12 10:29:06;;;;;;;12.63;8.15;;;16.10;99.90;;;;;;5025939;28;20056;-71
2022/04/12 10:31:32;;;;;;;11.80;7.82;;;16.20;99.90;;;;;;5006159;28;20045;-71
2022/04/12 10:34:01;;;;;;;14.00;8.15;;;16.30;99.90;;;;;;5008801;28;20065;-71
2022/04/12 10:37:09;;;;;;;13.88;7.95;;;16.30;99.90;;;;;;5008440;28;20052;-71
2022/04/12 10:39:36;;;;;;;13.55;8.48;;;16.30;99.90;;;;;;4963049;28;20089;-71
2022/04/12 10:42:11;;;;;;;10.65;7.50;;;16.40;99.90;;;;;;4948345;28;20186;-71
2022/04/12 10:45:06;;;;;;;14.88;9.55;;;16.40;99.90;;;;;;4996408;28;20037;-71
2022/04/12 10:47:34;;;;;;;15.38;9.77;;;16.40;99.90;;;;;;5006743;28;20042;-70
2022/04/12 10:50:05;;;;;;;11.55;8.43;;;16.50;99.90;;;;;;5007746;28;20053;-70
2022/04/12 10:52:36;;;;;;;14.88;9.75;;;16.60;99.90;;;;;;5009041;28;20049;-70
2022/04/12 10:55:07;;;;;;;13.77;8.65;;;16.70;99.90;;;;;;5026322;28;20054;-70
2022/04/12 10:57:33;;;;;;;14.48;9.18;;;16.70;99.90;;;;;;5009420;28;20041;-71
2022/04/12 11:00:09;;;;;;;12.10;8.63;;;16.70;99.90;;;;;;5007556;28;20121;-70
2022/04/12 11:02:53;;;;;;;12.35;8.18;;;16.80;99.90;;;;;;5026995;28;20046;-70
2022/04/12 11:05:37;;;;;;;12.60;8.05;;;16.90;99.90;;;;;;5005589;28;20033;-71
2022/04/12 11:08:14;;;;;;;14.93;8.15;;;16.90;99.90;;;;;;5025112;28;20103;-70
2022/04/12 11:10:54;;;;;;;13.00;7.60;;;16.90;99.90;;;;;;5007935;28;20105;-71
2022/04/12 11:13:21;;;;;;;14.73;8.10;;;17.00;99.90;;;;;;5025162;28;20740;-70
2022/04/12 11:15:55;;;;;;;11.68;8.00;;;17.00;99.90;;;;;;5005640;28;20050;-70
2022/04/12 11:18:21;;;;;;;14.38;8.15;;;17.10;99.90;;;;;;5023868;28;20139;-70
2022/04/12 11:21:02;;;;;;;12.02;7.68;;;17.10;99.90;;;;;;5025459;28;20697;-70
2022/04/12 11:24:02;;;;;;;9.20;7.05;;;17.10;99.90;;;;;;5008613;28;20056;-70
2022/04/12 11:26:44;;;;;;;11.38;7.70;;;17.20;99.90;;;;;;5004202;28;20055;-70
2022/04/12 11:29:16;;;;;;;11.52;7.53;;;17.10;99.90;;;;;;5005059;28;20128;-70
2022/04/12 11:31:55;;;;;;;10.20;7.03;;;17.10;99.90;;;;;;5001342;28;20057;-71
2022/04/12 11:34:22;;;;;;;11.68;7.57;;;17.20;99.90;;;;;;5001475;28;20144;-70
2022/04/12 11:36:54;;;;;;;14.05;8.18;;;17.20;99.90;;;;;;5000858;28;20053;-70
2022/04/12 11:39:42;;;;;;;12.68;8.07;;;17.20;99.90;;;;;;5005072;28;20437;-71
2022/04/12 11:42:09;;;;;;;13.40;8.32;;;17.20;99.90;;;;;;5004359;28;20309;-71
2022/04/12 11:44:36;;;;;;;13.45;8.02;;;17.10;99.90;;;;;;5022205;28;20053;-71
2022/04/12 11:47:04;;;;;;;12.43;8.40;;;17.00;99.90;;;;;;5003972;28;20049;-71
2022/04/12 11:49:38;;;;;;;12.80;8.65;;;17.10;99.90;;;;;;5021751;28;20724;-71
2022/04/12 11:52:14;;;;;;;12.05;8.68;;;17.10;99.90;;;;;;5000699;28;20122;-71
2022/04/12 11:54:46;;;;;;;12.35;8.68;;;17.10;99.90;;;;;;5000922;28;20048;-71
2022/04/12 11:57:20;;;;;;;14.93;9.10;;;17.10;99.90;;;;;;5003800;28;20160;-72
2022/04/12 11:59:50;;;;;;;13.20;8.70;;;17.20;99.90;;;;;;5001697;28;20083;-71
2022/04/12 12:02:21;;;;;;;10.75;7.28;;;17.20;99.90;;;;;;5018456;28;20057;-71
2022/04/12 12:04:59;;;;;;;10.05;6.70;;;17.20;99.90;;;;;;5020828;28;20114;-71
2022/04/12 12:07:25;;;;;;;9.45;6.50;;;17.20;99.90;;;;;;4998691;28;20211;-72
2022/04/12 12:09:58;;;;;;;12.20;7.18;;;17.30;99.90;;;;;;5006528;28;20080;-71
2022/04/12 12:12:33;;;;;;;10.32;6.68;;;17.40;99.90;;;;;;5000571;28;20041;-72
2022/04/12 12:15:21;;;;;;;11.57;7.43;;;17.30;99.90;;;;;;5006125;28;20045;-72
2022/04/12 12:17:49;;;;;;;11.93;7.38;;;17.20;99.90;;;;;;5026512;28;20087;-71
2022/04/12 12:20:17;;;;;;;11.98;7.00;;;17.20;99.90;;;;;;5008498;28;20671;-71
2022/04/12 12:22:45;;;;;;;12.50;7.57;;;17.20;99.90;;;;;;5024301;28;20436;-72
2022/04/12 12:25:18;;;;;;;11.75;7.20;;;17.30;99.90;;;;;;5003166;28;20045;-72
2022/04/12 12:27:51;;;;;;;;;;;17.30;99.90;;;;;;5008241;28;20148;-72
2022/04/12 12:30:27;;;;;;;13.07;8.00;;;17.40;99.90;;;;;;4998456;28;19932;-73
2022/04/12 12:32:56;;;;;;;13.15;7.22;;;17.40;99.90;;;;;;5000473;28;20089;-72
2022/04/12 12:35:25;;;;;;;11.70;7.13;;;17.40;99.90;;;;;;5016536;28;20050;-71
2022/04/12 12:37:50;;;;;;;11.40;7.50;;;17.40;99.90;;;;;;5014710;28;20442;-71
2022/04/12 12:40:22;;;;;;;11.43;7.55;;;17.40;99.90;;;;;;5004182;28;20502;-72
2022/04/12 12:42:50;;;;;;;10.80;7.55;;;17.50;99.90;;;;;;5031928;28;20041;-71
2022/04/12 12:45:19;;;;;;;12.63;7.78;;;17.50;99.90;;;;;;4999830;28;20076;-72